Pagrindinis puslapis
METAR-TAF:

METAR-TAF

Oro uostai :

Klužas-Napoka, Rumunija

platuma: 46-47N, ilguma: 023-34E, Aukštis: 315 m

Dabartinis oras

Ataskaita buvo paskelbta 45 minutes, ne 08:30 UTC
Vėjas 4 kt iš Rytų/Šiaurės Rytų, svyruoja nuo Šiaurės ir Pietryčių
Temperatūra 19°C
Drėgmė 46%
Slėgis 1021 hPa
Matomumas 10 km arba daugiau
nėra debesų žemiau 1500 m ir nėra kamuolinių lietaus debesų

METAR: LRCL 210830Z 07004KT 350V130 CAVOK 19/07 Q1021

Laikas: 12:15 (09:15 UTC)

Prognozė

Ataskaita buvo paskelbta 1 valandą ir 15 minutes, ne 08:00 UTC
Prognozė galioja nuo 21 metu 09 UTC su 21 metu 18 UTC
Vėjas 4 kt nuo kintamojo kryptimis
Matomumas 10 km arba daugiau
nėra debesų žemiau 1500 m ir nėra kamuolinių lietaus debesų

TAF: LRCL 210800Z 2109/2118 VRB04KT CAVOK

Orai ataskaitas ir orų prognozės (METAR, TAF).

turimą stotys yra geltonos ir raudonos taškus žemėlapyje.

Perkelti pele per norėdami pamatyti stoties vardą.

Tada spustelėkite, norėdami matyti oro stebėjimo ir prognozės.

Norėdami pakeisti žemėlapį: spustelėkite ant žalios mygtukų su juodo kryžiaus žemyn,; žalią mygtuką su brūkšneliu, jei norite nutolinti; arba žalių rodyklių gretimoms žemėlapius.


METAR-TAF: